Time;durP1;ratioP1;P1;durP2;ratioP2;P2;SDS_P1;SDS_P2;PMS_P1;PMS_P2;Temp;Humidity;BMP_temperature;BMP_pressure;BME280_temperature;BME280_humidity;BME280_pressure;Samples;Min_cycle;Max_cycle;Signal;HPM_P1;HPM_P2
2021/12/21 00:00:14;;;;;;;9.90;4.03;;;;;;;;;;5014702;28;20025;-80
2021/12/21 00:02:41;;;;;;;6.65;3.78;;;;;;;;;;5010856;28;20040;-81
2021/12/21 00:05:09;;;;;;;8.73;4.22;;;;;;;;;;5012557;28;20033;-81
2021/12/21 00:07:35;;;;;;;7.10;3.75;;;;;;;;;;5012903;28;20026;-80
2021/12/21 00:10:01;;;;;;;7.03;3.58;;;;;;;;;;5014057;28;20033;-81
2021/12/21 00:12:31;;;;;;;6.65;3.22;;;;;;;;;;5014518;28;20132;-81
2021/12/21 00:15:04;;;;;;;8.55;3.90;;;;;;;;;;5014240;28;20018;-81
2021/12/21 00:17:48;;;;;;;6.30;3.65;;;;;;;;;;5013822;28;20030;-81
2021/12/21 00:25:16;;;;;;;8.15;3.78;;;;;;;;;;5021319;28;20037;-81
2021/12/21 00:27:44;;;;;;;8.63;4.43;;;;;;;;;;5020664;28;20483;-81
2021/12/21 00:30:10;;;;;;;7.15;4.00;;;;;;;;;;5020747;28;20057;-81
2021/12/21 00:32:36;;;;;;;7.97;4.30;;;;;;;;;;5020296;28;20562;-81
2021/12/21 00:35:02;;;;;;;8.30;4.45;;;;;;;;;;5021564;28;20261;-81
2021/12/21 00:37:28;;;;;;;6.80;4.05;;;;;;;;;;5023334;28;20021;-81
2021/12/21 00:39:55;;;;;;;8.18;4.05;;;;;;;;;;5023503;28;20018;-81
2021/12/21 00:42:21;;;;;;;8.27;4.05;;;;;;;;;;5023709;28;20033;-81
2021/12/21 00:44:47;;;;;;;7.05;3.60;;;;;;;;;;5023414;28;20049;-81
2021/12/21 00:47:17;;;;;;;7.25;3.88;;;;;;;;;;5022723;28;20030;-81
2021/12/21 00:49:48;;;;;;;7.03;4.10;;;;;;;;;;5004837;28;20049;-81
2021/12/21 00:52:15;;;;;;;8.18;4.03;;;;;;;;;;5004292;28;20715;-81
2021/12/21 00:54:41;;;;;;;7.57;3.80;;;;;;;;;;5019057;28;20025;-81
2021/12/21 00:57:08;;;;;;;7.13;3.92;;;;;;;;;;5023523;28;20058;-81
2021/12/21 00:59:34;;;;;;;5.90;3.67;;;;;;;;;;5023998;28;20018;-81
2021/12/21 01:02:01;;;;;;;8.70;4.45;;;;;;;;;;5022940;28;20101;-80
2021/12/21 01:04:34;;;;;;;8.38;4.32;;;;;;;;;;5022400;28;20543;-80
2021/12/21 01:15:47;;;;;;;9.73;3.88;;;;;;;;;;4992626;28;20027;-81
2021/12/21 01:18:04;;;;;;;7.75;4.30;;;;;;;;;;5010461;28;20030;-81
2021/12/21 01:35:51;;;;;;;7.55;3.95;;;;;;;;;;5018036;28;20026;-81
2021/12/21 01:38:38;;;;;;;9.38;3.95;;;;;;;;;;5016301;28;20014;-81
2021/12/21 01:41:22;;;;;;;9.60;4.22;;;;;;;;;;5018204;28;20028;-81
2021/12/21 01:44:02;;;;;;;8.25;4.20;;;;;;;;;;5017460;28;20048;-81
2021/12/21 01:49:37;;;;;;;7.85;4.22;;;;;;;;;;5008790;28;20083;-81
2021/12/21 01:52:04;;;;;;;7.45;3.70;;;;;;;;;;5016207;28;20034;-80
2021/12/21 01:54:31;;;;;;;7.18;4.13;;;;;;;;;;5015209;28;20395;-80
2021/12/21 01:56:57;;;;;;;6.35;3.65;;;;;;;;;;5010308;28;20019;-81
2021/12/21 01:59:23;;;;;;;8.13;3.72;;;;;;;;;;4998083;28;20026;-81
2021/12/21 02:01:49;;;;;;;8.27;4.10;;;;;;;;;;5012976;28;20041;-80
2021/12/21 02:04:17;;;;;;;6.45;3.67;;;;;;;;;;5025064;28;20029;-81
2021/12/21 02:06:44;;;;;;;7.25;3.92;;;;;;;;;;5028606;28;20032;-80
2021/12/21 02:09:10;;;;;;;6.95;3.65;;;;;;;;;;5019222;28;20064;-81
2021/12/21 02:11:37;;;;;;;7.00;3.78;;;;;;;;;;5019468;28;20037;-81
2021/12/21 02:14:05;;;;;;;8.10;3.75;;;;;;;;;;5020514;28;20107;-81
2021/12/21 02:16:45;;;;;;;5.95;3.35;;;;;;;;;;5020120;28;20102;-81
2021/12/21 02:19:38;;;;;;;9.07;4.00;;;;;;;;;;5004856;28;20030;-81
2021/12/21 02:22:07;;;;;;;7.20;3.42;;;;;;;;;;5000355;28;20044;-81
2021/12/21 02:24:46;;;;;;;6.80;3.75;;;;;;;;;;5018390;28;20018;-81
2021/12/21 02:27:27;;;;;;;6.40;3.47;;;;;;;;;;5017144;28;20112;-81
2021/12/21 02:29:53;;;;;;;7.28;3.70;;;;;;;;;;5018406;28;20044;-81
2021/12/21 02:32:20;;;;;;;7.32;3.17;;;;;;;;;;5019101;28;20091;-81
2021/12/21 02:34:46;;;;;;;7.72;3.65;;;;;;;;;;4999120;28;20030;-80
2021/12/21 02:37:12;;;;;;;7.53;3.42;;;;;;;;;;5014218;28;20087;-80
2021/12/21 02:39:39;;;;;;;7.05;3.70;;;;;;;;;;5018797;28;20384;-81
2021/12/21 02:42:06;;;;;;;6.93;4.07;;;;;;;;;;5018385;28;20029;-80
2021/12/21 02:44:32;;;;;;;7.60;3.80;;;;;;;;;;5018465;28;20026;-81
2021/12/21 02:46:59;;;;;;;7.18;4.13;;;;;;;;;;5014526;28;20080;-81
2021/12/21 02:49:25;;;;;;;5.55;3.30;;;;;;;;;;5015801;28;20029;-80
2021/12/21 02:51:51;;;;;;;7.53;3.60;;;;;;;;;;5008246;28;20029;-80
2021/12/21 02:54:18;;;;;;;8.30;3.63;;;;;;;;;;5009524;28;20101;-81
2021/12/21 02:56:45;;;;;;;6.53;3.22;;;;;;;;;;5017591;28;20018;-81
2021/12/21 02:59:11;;;;;;;6.88;3.97;;;;;;;;;;5012828;28;20022;-80
2021/12/21 03:01:38;;;;;;;7.25;3.55;;;;;;;;;;5016131;28;20029;-80
2021/12/21 03:04:04;;;;;;;7.60;3.17;;;;;;;;;;5016686;28;20025;-80
2021/12/21 03:09:12;;;;;;;9.02;3.70;;;;;;;;;;5016115;28;20037;-80
2021/12/21 03:11:57;;;;;;;6.82;3.28;;;;;;;;;;4997027;28;20026;-80
2021/12/21 03:14:27;;;;;;;6.05;2.97;;;;;;;;;;4998951;28;20026;-81
2021/12/21 03:16:53;;;;;;;5.85;3.28;;;;;;;;;;5016076;28;20046;-81
2021/12/21 03:19:20;;;;;;;6.20;3.53;;;;;;;;;;5016015;28;20018;-80
2021/12/21 03:21:46;;;;;;;7.57;3.08;;;;;;;;;;5000323;28;20034;-80
2021/12/21 03:24:12;;;;;;;5.95;3.20;;;;;;;;;;5013409;28;20033;-81
2021/12/21 03:26:38;;;;;;;5.78;3.08;;;;;;;;;;5016854;28;20041;-80
2021/12/21 03:29:05;;;;;;;7.78;3.55;;;;;;;;;;5016117;28;20025;-81
2021/12/21 03:31:31;;;;;;;5.93;2.97;;;;;;;;;;5016841;28;20537;-80
2021/12/21 03:33:57;;;;;;;7.07;3.50;;;;;;;;;;5016816;28;20049;-81
2021/12/21 03:36:23;;;;;;;6.78;3.40;;;;;;;;;;5015021;28;20032;-81
2021/12/21 03:39:15;;;;;;;6.28;3.30;;;;;;;;;;5016776;28;20491;-80
2021/12/21 03:41:41;;;;;;;9.00;4.13;;;;;;;;;;5016765;28;20120;-81
2021/12/21 03:44:09;;;;;;;7.50;3.10;;;;;;;;;;5016768;28;20029;-80
2021/12/21 03:46:36;;;;;;;6.50;3.00;;;;;;;;;;5014325;28;20026;-80
2021/12/21 03:49:20;;;;;;;6.60;3.30;;;;;;;;;;5010078;28;20021;-80
2021/12/21 03:51:46;;;;;;;5.70;2.65;;;;;;;;;;5012186;28;20041;-81
2021/12/21 03:54:17;;;;;;;6.72;3.40;;;;;;;;;;5013472;28;20034;-81
2021/12/21 03:56:47;;;;;;;6.50;3.17;;;;;;;;;;5017242;28;20048;-81
2021/12/21 03:59:13;;;;;;;8.05;3.30;;;;;;;;;;5018080;28;20069;-81
2021/12/21 04:01:39;;;;;;;6.35;2.95;;;;;;;;;;5017497;28;20420;-81
2021/12/21 04:04:05;;;;;;;6.50;3.00;;;;;;;;;;5017311;28;20034;-81
2021/12/21 04:06:32;;;;;;;6.85;2.70;;;;;;;;;;5017759;28;20029;-80
2021/12/21 04:08:58;;;;;;;6.85;2.88;;;;;;;;;;5017070;28;20026;-81
2021/12/21 04:11:24;;;;;;;5.70;3.05;;;;;;;;;;5016403;28;20038;-80
2021/12/21 04:13:50;;;;;;;6.40;2.65;;;;;;;;;;5017119;28;20060;-81
2021/12/21 04:16:16;;;;;;;6.38;3.65;;;;;;;;;;5013477;28;20030;-81
2021/12/21 04:18:42;;;;;;;6.93;3.22;;;;;;;;;;5016485;28;20030;-81
2021/12/21 04:21:11;;;;;;;6.05;2.83;;;;;;;;;;5025485;28;20027;-81
2021/12/21 04:23:38;;;;;;;8.90;2.90;;;;;;;;;;5027732;28;20332;-81
2021/12/21 04:26:04;;;;;;;5.80;3.00;;;;;;;;;;5018034;28;20038;-81
2021/12/21 04:28:30;;;;;;;4.97;2.75;;;;;;;;;;5018813;28;20479;-81
2021/12/21 04:30:56;;;;;;;6.97;3.05;;;;;;;;;;5020736;28;20040;-81
2021/12/21 04:33:22;;;;;;;6.72;2.80;;;;;;;;;;5035450;28;20048;-81
2021/12/21 04:35:48;;;;;;;6.47;3.20;;;;;;;;;;5019610;28;20052;-81
2021/12/21 04:38:26;;;;;;;6.20;3.03;;;;;;;;;;5028943;28;20467;-80
2021/12/21 04:40:58;;;;;;;6.18;3.42;;;;;;;;;;5027431;28;20061;-80
2021/12/21 04:43:24;;;;;;;5.60;2.85;;;;;;;;;;5022181;28;20052;-80
2021/12/21 04:45:50;;;;;;;6.10;3.45;;;;;;;;;;5012109;28;20038;-81
2021/12/21 04:48:16;;;;;;;5.15;3.10;;;;;;;;;;5012675;28;20112;-80
2021/12/21 04:50:43;;;;;;;7.43;4.40;;;;;;;;;;5015104;28;20092;-81
2021/12/21 04:53:09;;;;;;;6.78;3.53;;;;;;;;;;5013258;28;20180;-81
2021/12/21 04:55:35;;;;;;;8.32;3.38;;;;;;;;;;5013995;28;20496;-81
2021/12/21 04:58:01;;;;;;;10.38;3.90;;;;;;;;;;5012215;28;20104;-81
2021/12/21 05:00:27;;;;;;;6.38;3.33;;;;;;;;;;5010630;28;20484;-81
2021/12/21 05:02:54;;;;;;;12.23;4.10;;;;;;;;;;5011921;28;20029;-81
2021/12/21 05:05:20;;;;;;;7.18;3.85;;;;;;;;;;5008952;28;20445;-81
2021/12/21 05:07:51;;;;;;;6.50;3.10;;;;;;;;;;5014631;28;20455;-81
2021/12/21 05:10:18;;;;;;;9.38;3.22;;;;;;;;;;5016655;28;20029;-81
2021/12/21 05:12:45;;;;;;;8.00;3.35;;;;;;;;;;5017434;28;20415;-82
2021/12/21 05:15:11;;;;;;;8.90;3.85;;;;;;;;;;5015791;28;20076;-81
2021/12/21 05:17:37;;;;;;;7.90;3.58;;;;;;;;;;5016219;28;20401;-81
2021/12/21 05:20:04;;;;;;;7.00;3.58;;;;;;;;;;5016828;28;20049;-81
2021/12/21 05:22:30;;;;;;;7.47;3.63;;;;;;;;;;5017280;28;20084;-81
2021/12/21 05:24:56;;;;;;;14.07;5.13;;;;;;;;;;5017382;28;20037;-80
2021/12/21 05:27:23;;;;;;;6.10;3.80;;;;;;;;;;5015929;28;20025;-80
2021/12/21 05:29:49;;;;;;;8.43;4.05;;;;;;;;;;5022901;28;20038;-79
2021/12/21 05:32:15;;;;;;;9.05;3.88;;;;;;;;;;5033002;28;20030;-78
2021/12/21 05:34:41;;;;;;;12.13;4.32;;;;;;;;;;5028884;28;20048;-81
2021/12/21 05:37:07;;;;;;;9.65;4.53;;;;;;;;;;5024207;28;20028;-80
2021/12/21 05:39:54;;;;;;;7.68;4.53;;;;;;;;;;5020856;28;20029;-81
2021/12/21 05:42:20;;;;;;;9.63;4.47;;;;;;;;;;5018932;28;20030;-80
2021/12/21 05:44:46;;;;;;;9.48;4.60;;;;;;;;;;5017799;28;20105;-79
2021/12/21 05:47:12;;;;;;;9.20;4.63;;;;;;;;;;5016059;28;20232;-81
2021/12/21 05:49:38;;;;;;;9.60;5.07;;;;;;;;;;5013497;28;20338;-81
2021/12/21 05:52:04;;;;;;;8.23;4.57;;;;;;;;;;4998495;28;20034;-80
2021/12/21 05:54:30;;;;;;;12.13;5.20;;;;;;;;;;5014215;28;20030;-81
2021/12/21 05:56:56;;;;;;;11.70;5.13;;;;;;;;;;5017047;28;20032;-81
2021/12/21 05:59:22;;;;;;;18.95;6.13;;;;;;;;;;5017437;28;20562;-82
2021/12/21 06:01:48;;;;;;;8.55;4.88;;;;;;;;;;5008876;28;20037;-81
2021/12/21 06:04:14;;;;;;;11.55;5.00;;;;;;;;;;5012054;28;20022;-81
2021/12/21 06:06:40;;;;;;;10.75;4.43;;;;;;;;;;5009327;28;20400;-80
2021/12/21 06:09:09;;;;;;;11.13;5.32;;;;;;;;;;5009691;28;20491;-81
2021/12/21 06:11:42;;;;;;;9.52;5.00;;;;;;;;;;5008415;28;20026;-81
2021/12/21 06:14:32;;;;;;;9.73;4.90;;;;;;;;;;5012103;28;20018;-80
2021/12/21 06:27:54;;;;;;;34.70;19.25;;;;;;;;;;5012920;28;20024;-81
2021/12/21 06:30:20;;;;;;;22.38;11.50;;;;;;;;;;5007005;28;20029;-80
2021/12/21 06:32:46;;;;;;;13.98;7.90;;;;;;;;;;5015051;28;20033;-81
2021/12/21 06:35:13;;;;;;;11.77;6.30;;;;;;;;;;5015151;28;20097;-82
2021/12/21 06:37:39;;;;;;;12.48;6.78;;;;;;;;;;5013886;28;20060;-81
2021/12/21 06:40:05;;;;;;;12.35;6.70;;;;;;;;;;5017126;28;20041;-80
2021/12/21 06:42:31;;;;;;;9.10;5.10;;;;;;;;;;5016606;28;20036;-80
2021/12/21 06:44:59;;;;;;;9.25;4.85;;;;;;;;;;5015516;28;20025;-81
2021/12/21 06:52:56;;;;;;;9.88;4.75;;;;;;;;;;5016194;28;20057;-81
2021/12/21 06:55:22;;;;;;;9.40;5.15;;;;;;;;;;5014584;28;20099;-81
2021/12/21 06:57:48;;;;;;;13.60;5.82;;;;;;;;;;5016416;28;20080;-80
2021/12/21 07:00:15;;;;;;;10.40;5.63;;;;;;;;;;5017516;28;20089;-81
2021/12/21 07:02:41;;;;;;;11.20;5.60;;;;;;;;;;5020333;28;20105;-81
2021/12/21 07:05:08;;;;;;;9.90;5.35;;;;;;;;;;5031555;28;20041;-81
2021/12/21 07:07:34;;;;;;;9.27;5.65;;;;;;;;;;5007746;28;20105;-81
2021/12/21 07:10:04;;;;;;;9.10;4.88;;;;;;;;;;5015703;28;20040;-81
2021/12/21 07:18:00;;;;;;;11.35;5.63;;;;;;;;;;5019396;28;20086;-81
2021/12/21 07:20:27;;;;;;;9.63;5.22;;;;;;;;;;5024214;28;20045;-80
2021/12/21 07:22:53;;;;;;;10.15;5.10;;;;;;;;;;5035033;28;20037;-81
2021/12/21 07:25:19;;;;;;;14.68;7.32;;;;;;;;;;5016382;28;20029;-80
2021/12/21 07:27:45;;;;;;;10.55;5.53;;;;;;;;;;5017903;28;20125;-81
2021/12/21 07:30:12;;;;;;;10.77;6.00;;;;;;;;;;5017820;28;20028;-81
2021/12/21 07:32:38;;;;;;;10.57;5.85;;;;;;;;;;5018703;28;20094;-81
2021/12/21 07:35:05;;;;;;;16.17;6.60;;;;;;;;;;5015661;28;20038;-81
2021/12/21 07:37:31;;;;;;;11.98;6.15;;;;;;;;;;5017589;28;20511;-80
2021/12/21 07:39:57;;;;;;;9.82;5.82;;;;;;;;;;5016161;28;20049;-81
2021/12/21 07:42:23;;;;;;;8.48;6.22;;;;;;;;;;5014165;28;20105;-82
2021/12/21 07:44:50;;;;;;;9.95;4.50;;;;;;;;;;5018103;28;20029;-80
2021/12/21 07:47:17;;;;;;;8.30;4.32;;;;;;;;;;5015804;28;20120;-82
2021/12/21 07:49:43;;;;;;;10.02;4.78;;;;;;;;;;5015801;28;20030;-81
2021/12/21 07:52:10;;;;;;;8.77;4.82;;;;;;;;;;5016954;28;20128;-81
2021/12/21 07:54:36;;;;;;;9.82;4.28;;;;;;;;;;5016162;28;20036;-81
2021/12/21 07:57:03;;;;;;;9.38;4.70;;;;;;;;;;5003889;28;20065;-81
2021/12/21 07:59:29;;;;;;;8.40;4.93;;;;;;;;;;5012115;28;20040;-82
2021/12/21 08:01:55;;;;;;;8.38;4.20;;;;;;;;;;5015824;28;20018;-81
2021/12/21 08:04:27;;;;;;;8.98;4.45;;;;;;;;;;5013985;28;20022;-81
2021/12/21 08:06:55;;;;;;;8.85;4.47;;;;;;;;;;5002988;28;20041;-82
2021/12/21 08:09:21;;;;;;;8.25;4.63;;;;;;;;;;5007249;28;20025;-81
2021/12/21 08:14:33;;;;;;;11.60;4.70;;;;;;;;;;5013177;28;20052;-81
2021/12/21 08:16:59;;;;;;;8.55;5.00;;;;;;;;;;5014089;28;20076;-81
2021/12/21 08:19:25;;;;;;;11.63;4.75;;;;;;;;;;5012333;28;20017;-81
2021/12/21 08:21:51;;;;;;;8.73;4.22;;;;;;;;;;5011875;28;20018;-81
2021/12/21 08:24:17;;;;;;;10.93;4.82;;;;;;;;;;5014859;28;20083;-81
2021/12/21 08:26:43;;;;;;;9.80;5.05;;;;;;;;;;5014305;28;20133;-81
2021/12/21 08:29:09;;;;;;;7.57;4.18;;;;;;;;;;5022009;28;20105;-81
2021/12/21 08:31:35;;;;;;;8.15;4.40;;;;;;;;;;5035079;28;20108;-82
2021/12/21 08:34:01;;;;;;;7.13;4.57;;;;;;;;;;5016715;28;20034;-81
2021/12/21 08:36:27;;;;;;;7.63;4.45;;;;;;;;;;5015970;28;20034;-81
2021/12/21 08:38:54;;;;;;;9.25;4.90;;;;;;;;;;5015730;28;20030;-82
2021/12/21 08:41:22;;;;;;;10.90;6.22;;;;;;;;;;5033373;28;20128;-82
2021/12/21 08:43:48;;;;;;;9.60;6.38;;;;;;;;;;5023572;28;20022;-81
2021/12/21 08:46:14;;;;;;;9.15;5.07;;;;;;;;;;5059195;28;20093;-82
2021/12/21 08:48:40;;;;;;;12.40;6.45;;;;;;;;;;5023127;28;20033;-83
2021/12/21 08:51:06;;;;;;;13.07;6.60;;;;;;;;;;5022737;28;20033;-83
2021/12/21 08:53:33;;;;;;;11.15;6.85;;;;;;;;;;5037425;28;20042;-83
2021/12/21 08:55:59;;;;;;;10.38;5.95;;;;;;;;;;5022314;28;20026;-83
2021/12/21 08:58:25;;;;;;;11.65;6.68;;;;;;;;;;5022491;28;20069;-83
2021/12/21 09:00:52;;;;;;;12.73;7.93;;;;;;;;;;5022501;28;20030;-83
2021/12/21 09:03:20;;;;;;;17.80;11.02;;;;;;;;;;5027269;28;20029;-82
2021/12/21 09:05:46;;;;;;;15.77;10.05;;;;;;;;;;5041806;28;20055;-83
2021/12/21 09:08:12;;;;;;;17.13;9.95;;;;;;;;;;5041496;28;20026;-82
2021/12/21 09:10:41;;;;;;;10.93;5.63;;;;;;;;;;5040987;28;20036;-82
2021/12/21 09:13:09;;;;;;;9.07;5.90;;;;;;;;;;5030399;28;20075;-83
2021/12/21 09:15:35;;;;;;;9.48;5.70;;;;;;;;;;5020774;28;20017;-83
2021/12/21 09:18:01;;;;;;;9.23;4.93;;;;;;;;;;5021362;28;20029;-82
2021/12/21 09:20:28;;;;;;;9.50;5.22;;;;;;;;;;5021616;28;20030;-83
2021/12/21 09:22:55;;;;;;;8.98;5.30;;;;;;;;;;5026323;28;20053;-83
2021/12/21 09:25:23;;;;;;;8.48;5.75;;;;;;;;;;5019944;28;20037;-82
2021/12/21 09:27:49;;;;;;;8.90;5.80;;;;;;;;;;5020297;28;20041;-82
2021/12/21 09:30:17;;;;;;;9.82;5.85;;;;;;;;;;5020745;28;20060;-83
2021/12/21 09:32:43;;;;;;;10.30;6.35;;;;;;;;;;5019970;28;20030;-82
2021/12/21 09:35:10;;;;;;;9.70;5.90;;;;;;;;;;5020740;28;20036;-82
2021/12/21 09:37:37;;;;;;;9.65;6.28;;;;;;;;;;5021045;28;20022;-82
2021/12/21 09:40:04;;;;;;;9.07;5.75;;;;;;;;;;5017946;28;20037;-82
2021/12/21 09:42:32;;;;;;;13.63;5.88;;;;;;;;;;5018451;28;20502;-83
2021/12/21 09:44:58;;;;;;;10.10;5.72;;;;;;;;;;5018633;28;20083;-83
2021/12/21 09:47:26;;;;;;;8.45;5.35;;;;;;;;;;5018007;28;20129;-83
2021/12/21 09:49:52;;;;;;;8.27;5.03;;;;;;;;;;5019239;28;20104;-83
2021/12/21 09:52:20;;;;;;;8.48;5.18;;;;;;;;;;5012560;28;20484;-82
2021/12/21 09:54:46;;;;;;;8.45;5.38;;;;;;;;;;5019308;28;20030;-82
2021/12/21 09:57:16;;;;;;;7.63;5.00;;;;;;;;;;5037939;28;20452;-81
2021/12/21 09:59:42;;;;;;;8.18;5.20;;;;;;;;;;5031055;28;20053;-81
2021/12/21 10:02:08;;;;;;;8.30;4.43;;;;;;;;;;5019241;28;20053;-83
2021/12/21 10:04:44;;;;;;;11.20;4.75;;;;;;;;;;5021197;28;20116;-82
2021/12/21 10:07:12;;;;;;;8.75;4.22;;;;;;;;;;5019841;28;20022;-82
2021/12/21 10:09:43;;;;;;;6.78;4.20;;;;;;;;;;5019801;28;20120;-83
2021/12/21 10:12:09;;;;;;;7.70;4.25;;;;;;;;;;5023267;28;20112;-83
2021/12/21 10:14:35;;;;;;;6.03;3.45;;;;;;;;;;5020589;28;20061;-83
2021/12/21 10:17:05;;;;;;;6.40;3.63;;;;;;;;;;5021670;28;20022;-82
2021/12/21 10:19:31;;;;;;;8.02;3.90;;;;;;;;;;5016600;28;20030;-83
2021/12/21 10:22:07;;;;;;;8.73;4.25;;;;;;;;;;5014678;28;20193;-83
2021/12/21 10:24:33;;;;;;;8.68;3.83;;;;;;;;;;5020844;28;20079;-83
2021/12/21 10:27:07;;;;;;;7.32;4.18;;;;;;;;;;5018379;28;20546;-82
2021/12/21 10:29:46;;;;;;;7.43;4.13;;;;;;;;;;5001760;28;20054;-83
2021/12/21 10:32:26;;;;;;;8.25;4.50;;;;;;;;;;5020057;28;20022;-83
2021/12/21 10:34:58;;;;;;;8.15;4.28;;;;;;;;;;5017303;28;20026;-83
2021/12/21 10:37:27;;;;;;;7.50;3.88;;;;;;;;;;5020992;28;20022;-83
2021/12/21 10:40:02;;;;;;;7.97;4.00;;;;;;;;;;5018647;28;20025;-83
2021/12/21 10:42:28;;;;;;;6.07;3.58;;;;;;;;;;5018272;28;20030;-83
2021/12/21 10:45:01;;;;;;;7.47;4.00;;;;;;;;;;5018748;28;20034;-82
2021/12/21 10:47:27;;;;;;;6.03;3.97;;;;;;;;;;5018812;28;20096;-83
2021/12/21 10:49:53;;;;;;;5.82;3.97;;;;;;;;;;5012745;28;20491;-83
2021/12/21 10:52:21;;;;;;;6.40;4.30;;;;;;;;;;5014121;28;20045;-82
2021/12/21 10:54:48;;;;;;;8.50;4.50;;;;;;;;;;5020332;28;20082;-83
2021/12/21 10:57:18;;;;;;;7.80;4.07;;;;;;;;;;5017277;28;20030;-83
2021/12/21 10:59:46;;;;;;;5.60;3.63;;;;;;;;;;5019840;28;20025;-82
2021/12/21 11:02:16;;;;;;;5.63;3.83;;;;;;;;;;5022320;28;20033;-84
2021/12/21 11:04:47;;;;;;;8.10;4.32;;;;;;;;;;5034630;28;20025;-83
2021/12/21 11:07:31;;;;;;;6.97;4.28;;;;;;;;;;5020182;28;20025;-83
2021/12/21 11:09:59;;;;;;;7.10;4.53;;;;;;;;;;5019513;28;20025;-83
2021/12/21 11:12:27;;;;;;;6.75;4.72;;;;;;;;;;5019418;28;20023;-83
2021/12/21 11:14:54;;;;;;;6.72;4.70;;;;;;;;;;5017314;28;20026;-83
2021/12/21 11:17:21;;;;;;;7.63;4.50;;;;;;;;;;5018414;28;20119;-84
2021/12/21 11:19:50;;;;;;;6.95;4.82;;;;;;;;;;5016253;28;20029;-84
2021/12/21 11:22:16;;;;;;;6.55;4.50;;;;;;;;;;5019144;28;20022;-83
2021/12/21 11:24:43;;;;;;;7.25;4.80;;;;;;;;;;5018868;28;20065;-84
2021/12/21 11:27:10;;;;;;;6.25;4.35;;;;;;;;;;5019121;28;20026;-84
2021/12/21 11:29:36;;;;;;;9.23;4.22;;;;;;;;;;5019640;28;20053;-84
2021/12/21 11:32:03;;;;;;;11.98;5.80;;;;;;;;;;5018543;28;20092;-83
2021/12/21 11:34:33;;;;;;;7.13;4.22;;;;;;;;;;5019309;28;20028;-84
2021/12/21 11:39:44;;;;;;;5.93;4.10;;;;;;;;;;5017816;28;20040;-83
2021/12/21 11:42:16;;;;;;;7.22;4.25;;;;;;;;;;5019539;28;20034;-83
2021/12/21 11:44:54;;;;;;;6.82;3.92;;;;;;;;;;5003642;28;20429;-84
2021/12/21 11:47:27;;;;;;;5.85;3.80;;;;;;;;;;5019651;28;20053;-83
2021/12/21 11:49:55;;;;;;;6.82;3.58;;;;;;;;;;5004163;28;20082;-84
2021/12/21 11:52:23;;;;;;;5.97;4.10;;;;;;;;;;5025162;28;20036;-84
2021/12/21 11:54:50;;;;;;;7.47;3.67;;;;;;;;;;5025227;28;20026;-83
2021/12/21 11:57:18;;;;;;;4.82;2.80;;;;;;;;;;5026495;28;20076;-84
2021/12/21 11:59:45;;;;;;;6.90;3.20;;;;;;;;;;5027189;28;20072;-83
2021/12/21 12:02:11;;;;;;;5.30;3.00;;;;;;;;;;5007619;28;20042;-84
2021/12/21 12:04:37;;;;;;;5.03;3.20;;;;;;;;;;5003203;28;20443;-84
2021/12/21 12:07:15;;;;;;;9.38;3.20;;;;;;;;;;5017611;28;20033;-83
2021/12/21 12:09:41;;;;;;;5.70;3.90;;;;;;;;;;5035423;28;20112;-83
2021/12/21 12:12:11;;;;;;;7.22;3.90;;;;;;;;;;5018797;28;20030;-83
2021/12/21 12:14:38;;;;;;;6.75;3.50;;;;;;;;;;5034191;28;20047;-84
2021/12/21 12:17:11;;;;;;;6.43;3.50;;;;;;;;;;5024445;28;20029;-84
2021/12/21 12:19:38;;;;;;;5.60;3.25;;;;;;;;;;5018398;28;20033;-84
2021/12/21 12:22:09;;;;;;;5.63;3.47;;;;;;;;;;5019042;28;20014;-83
2021/12/21 12:24:40;;;;;;;6.15;3.75;;;;;;;;;;5016944;28;20080;-82
2021/12/21 12:27:15;;;;;;;6.28;3.17;;;;;;;;;;5029578;28;20113;-83
2021/12/21 12:29:45;;;;;;;6.28;3.53;;;;;;;;;;5016047;28;20029;-83
2021/12/21 12:32:12;;;;;;;7.03;3.38;;;;;;;;;;5016055;28;20026;-83
2021/12/21 12:34:38;;;;;;;7.18;3.50;;;;;;;;;;5017416;28;20050;-83
2021/12/21 12:37:33;;;;;;;5.03;3.15;;;;;;;;;;5017876;28;20018;-82
2021/12/21 12:40:18;;;;;;;7.38;4.13;;;;;;;;;;4991300;28;20096;-83
2021/12/21 12:42:53;;;;;;;5.88;3.63;;;;;;;;;;5018269;28;20518;-83
2021/12/21 12:45:22;;;;;;;6.60;4.15;;;;;;;;;;5016619;28;20025;-83
2021/12/21 12:47:52;;;;;;;7.40;3.92;;;;;;;;;;5018460;28;20070;-83
2021/12/21 12:50:20;;;;;;;6.32;3.92;;;;;;;;;;5019538;28;20018;-82
2021/12/21 12:52:59;;;;;;;6.78;4.43;;;;;;;;;;5016704;28;20105;-83
2021/12/21 12:55:35;;;;;;;6.57;3.88;;;;;;;;;;5014970;28;20030;-83
2021/12/21 12:58:05;;;;;;;7.60;3.20;;;;;;;;;;5016973;28;20536;-83
2021/12/21 13:00:32;;;;;;;4.88;2.80;;;;;;;;;;5017110;28;20029;-82
2021/12/21 13:03:03;;;;;;;5.93;2.80;;;;;;;;;;5018441;28;20585;-83
2021/12/21 13:05:36;;;;;;;5.32;2.95;;;;;;;;;;5018183;28;20026;-83
2021/12/21 13:08:11;;;;;;;6.82;3.00;;;;;;;;;;5017748;28;20018;-83
2021/12/21 13:10:38;;;;;;;6.10;2.95;;;;;;;;;;5016768;28;20038;-83
2021/12/21 13:13:04;;;;;;;5.93;3.30;;;;;;;;;;5017965;28;20026;-83
2021/12/21 13:15:34;;;;;;;6.85;3.03;;;;;;;;;;5015519;28;20037;-82
2021/12/21 13:18:01;;;;;;;5.70;3.42;;;;;;;;;;5018001;28;20036;-84
2021/12/21 13:20:27;;;;;;;6.30;3.28;;;;;;;;;;5018558;28;20026;-82
2021/12/21 13:22:53;;;;;;;5.60;3.28;;;;;;;;;;5018291;28;20087;-83
2021/12/21 13:25:19;;;;;;;5.78;3.22;;;;;;;;;;5016910;28;20022;-83
2021/12/21 13:27:45;;;;;;;7.97;3.22;;;;;;;;;;5020906;28;20032;-82
2021/12/21 13:30:12;;;;;;;7.10;3.38;;;;;;;;;;5021219;28;20018;-85
2021/12/21 13:32:38;;;;;;;6.55;3.67;;;;;;;;;;5018997;28;20018;-82
2021/12/21 13:35:05;;;;;;;6.38;3.67;;;;;;;;;;5022301;28;20032;-83
2021/12/21 13:37:31;;;;;;;6.50;3.63;;;;;;;;;;5022625;28;20026;-84
2021/12/21 13:39:58;;;;;;;5.60;3.08;;;;;;;;;;5011868;28;20042;-83
2021/12/21 13:42:27;;;;;;;7.50;3.28;;;;;;;;;;5014639;28;20022;-84
2021/12/21 13:44:57;;;;;;;5.20;3.15;;;;;;;;;;5011861;28;20050;-84
2021/12/21 13:47:23;;;;;;;9.20;3.58;;;;;;;;;;5019616;28;20021;-84
2021/12/21 13:49:55;;;;;;;6.95;3.92;;;;;;;;;;5020485;28;20033;-84
2021/12/21 13:52:22;;;;;;;8.27;3.78;;;;;;;;;;5018825;28;20117;-83
2021/12/21 13:54:48;;;;;;;6.18;3.00;;;;;;;;;;5018922;28;20036;-83
2021/12/21 13:57:15;;;;;;;8.05;3.97;;;;;;;;;;5017635;28;20085;-83
2021/12/21 13:59:41;;;;;;;6.75;3.63;;;;;;;;;;5019298;28;20025;-82
2021/12/21 14:02:10;;;;;;;6.97;4.07;;;;;;;;;;5020219;28;20045;-83
2021/12/21 14:04:48;;;;;;;8.43;3.60;;;;;;;;;;5019640;28;20032;-82
2021/12/21 14:07:14;;;;;;;8.05;3.40;;;;;;;;;;5018261;28;20030;-84
2021/12/21 14:09:40;;;;;;;7.85;3.63;;;;;;;;;;5017909;28;20056;-82
2021/12/21 14:12:13;;;;;;;11.65;5.63;;;;;;;;;;5019562;28;20025;-84
2021/12/21 14:14:40;;;;;;;15.80;7.70;;;;;;;;;;5018968;28;20021;-83
2021/12/21 14:17:12;;;;;;;19.70;9.82;;;;;;;;;;5017610;28;20115;-83
2021/12/21 14:19:38;;;;;;;17.25;8.48;;;;;;;;;;5017699;28;20395;-84
2021/12/21 14:22:04;;;;;;;11.55;5.97;;;;;;;;;;5017740;28;20459;-83
2021/12/21 14:24:31;;;;;;;13.60;6.88;;;;;;;;;;5018540;28;20044;-83
2021/12/21 14:26:58;;;;;;;13.30;6.88;;;;;;;;;;5017196;28;20045;-83
2021/12/21 14:29:25;;;;;;;14.63;6.75;;;;;;;;;;5016559;28;20026;-82
2021/12/21 14:34:43;;;;;;;13.68;6.75;;;;;;;;;;5011013;28;20084;-82
2021/12/21 14:37:14;;;;;;;39.47;16.67;;;;;;;;;;5017385;28;20025;-84
2021/12/21 14:39:46;;;;;;;17.25;9.18;;;;;;;;;;5018848;28;20056;-84
2021/12/21 14:42:13;;;;;;;18.27;8.10;;;;;;;;;;5018172;28;20388;-83
2021/12/21 14:44:44;;;;;;;11.40;5.47;;;;;;;;;;5015501;28;20053;-83
2021/12/21 14:47:14;;;;;;;10.07;5.18;;;;;;;;;;5010287;28;20101;-82
2021/12/21 14:49:52;;;;;;;9.45;5.15;;;;;;;;;;5018706;28;20125;-82
2021/12/21 14:52:39;;;;;;;12.18;5.88;;;;;;;;;;4999282;28;20551;-83
2021/12/21 14:55:08;;;;;;;9.82;5.85;;;;;;;;;;5008044;28;20041;-83
2021/12/21 14:57:37;;;;;;;14.73;7.85;;;;;;;;;;5018399;28;20041;-82
2021/12/21 15:00:15;;;;;;;12.13;7.45;;;;;;;;;;5017163;28;20030;-83
2021/12/21 15:05:10;;;;;;;9.55;6.18;;;;;;;;;;5032581;28;20018;-83
2021/12/21 15:07:36;;;;;;;10.95;5.90;;;;;;;;;;5022509;28;20395;-83
2021/12/21 15:10:04;;;;;;;11.77;5.30;;;;;;;;;;5019791;28;20045;-84
2021/12/21 15:12:30;;;;;;;11.50;5.75;;;;;;;;;;5019854;28;20029;-82
2021/12/21 15:14:56;;;;;;;9.40;5.25;;;;;;;;;;5018881;28;20038;-83
2021/12/21 15:17:23;;;;;;;12.23;6.40;;;;;;;;;;5018942;28;20033;-83
2021/12/21 15:19:49;;;;;;;12.73;6.20;;;;;;;;;;5020222;28;20084;-83
2021/12/21 15:22:18;;;;;;;14.52;6.10;;;;;;;;;;5018552;28;20029;-82
2021/12/21 15:24:44;;;;;;;11.73;6.20;;;;;;;;;;5020845;28;20075;-83
2021/12/21 15:27:11;;;;;;;12.35;6.43;;;;;;;;;;5030592;28;20036;-83
2021/12/21 15:29:37;;;;;;;10.80;6.18;;;;;;;;;;5033847;28;20025;-84
2021/12/21 15:32:04;;;;;;;9.70;6.03;;;;;;;;;;5016655;28;20115;-83
2021/12/21 15:34:30;;;;;;;11.10;5.88;;;;;;;;;;5017696;28;20113;-84
2021/12/21 15:36:56;;;;;;;13.98;7.30;;;;;;;;;;5018679;28;20357;-83
2021/12/21 15:39:23;;;;;;;21.27;12.65;;;;;;;;;;5021110;28;20167;-83
2021/12/21 15:41:54;;;;;;;24.13;14.30;;;;;;;;;;5020038;28;20483;-83
2021/12/21 15:44:27;;;;;;;23.80;14.32;;;;;;;;;;5016870;28;20057;-83
2021/12/21 15:46:53;;;;;;;22.40;13.90;;;;;;;;;;5015951;28;20441;-83
2021/12/21 15:49:19;;;;;;;24.70;15.75;;;;;;;;;;5015279;28;20033;-83
2021/12/21 15:51:46;;;;;;;22.15;13.07;;;;;;;;;;5017264;28;20038;-83
2021/12/21 15:54:12;;;;;;;18.98;11.65;;;;;;;;;;5018606;28;20110;-83